Meteorological Aerodrome Report (METAR)

METAR

Data at: 1110 UTC 12 Jun 2021

METAR for:NVSC (Sola/Vanua Lava Arpt, TO, NV)
Text:NVSC 120900Z 11010KT 9999 SCT020 28/22 Q1015
Temperature: 28.0°C ( 82°F)
Dewpoint: 22.0°C ( 72°F) [RH = 70%]
Pressure (altimeter):29.97 inches Hg (1015.0 mb)
Winds:from the ESE (110 degrees) at 12 MPH (10 knots; 5.1 m/s)
Visibility:6 or more sm (10+ km)
Ceiling:at least 12,000 feet AGL
Clouds: scattered clouds at 2000 feet AGL

METAR

Data at: 1110 UTC 12 Jun 2021

METAR for:NVSG (Longana Arpt, PA, NV)
Text:No data found

METAR

Data at: 1110 UTC 12 Jun 2021

METAR for:NVSS (Santo/Pekoa Intl, SA, NV)
Text:NVSS 120900Z 12004KT 9999 FEW020 BKN270 25/21 Q1016
Temperature: 25.0°C ( 77°F)
Dewpoint: 21.0°C ( 70°F) [RH = 79%]
Pressure (altimeter):30.00 inches Hg (1016.0 mb)
Winds:from the ESE (120 degrees) at 5 MPH (4 knots; 2.1 m/s)
Visibility:6 or more sm (10+ km)
Ceiling:27000 feet AGL
Clouds: few clouds at 2000 feet AGL, broken clouds at 27000 feet AGL

METAR

Data at: 1110 UTC 12 Jun 2021

METAR for:NVSL (Malekula Isl/Lamap, MA, NV)
Text:No data found

METAR

Data at: 1110 UTC 12 Jun 2021

METAR for:NVSP (Norsup Arpt, MA, NV)
Text:No data found

METAR

Data at: 1110 UTC 12 Jun 2021

METAR for:NVVV (Efate/Bauerfield Int, SE, NV)
Text:NVVV 121100Z 13003KT 9999 FEW020 BKN270 20/20 Q1018
Temperature: 20.0°C ( 68°F)
Dewpoint: 20.0°C ( 68°F) [RH = 100%]
Pressure (altimeter):30.06 inches Hg (1018.0 mb)
Winds:from the SE (130 degrees) at 3 MPH (3 knots; 1.5 m/s)
Visibility:6 or more sm (10+ km)
Ceiling:27000 feet AGL
Clouds: few clouds at 2000 feet AGL, broken clouds at 27000 feet AGL

METAR

Data at: 1110 UTC 12 Jun 2021

METAR for:NVVW (Tanna Arpt, TA, NV)
Text:NVVW 120600Z 00000KT 9999 FEW022 BKN045 24/20 Q1017
Temperature: 24.0°C ( 75°F)
Dewpoint: 20.0°C ( 68°F) [RH = 78%]
Pressure (altimeter):30.03 inches Hg (1017.0 mb)
Winds:calm
Visibility:6 or more sm (10+ km)
Ceiling:4500 feet AGL
Clouds: few clouds at 2200 feet AGL, broken clouds at 4500 feet AGL

METAR

Data at: 1110 UTC 12 Jun 2021

METAR for:NVVA (Aneityum/Mystery Isl, TA, NV)
Text:NVVA 120900Z 09008KT 9999 FEW012 SCT020 BKN040 23/20 Q1019 RMK RERA
Temperature: 23.0°C ( 73°F)
Dewpoint: 20.0°C ( 68°F) [RH = 83%]
Pressure (altimeter):30.09 inches Hg (1019.0 mb)
Winds:from the E (90 degrees) at 9 MPH (8 knots; 4.1 m/s)
Visibility:6 or more sm (10+ km)
Ceiling:4000 feet AGL
Clouds: few clouds at 1200 feet AGL, scattered clouds at 2000 feet AGL, broken clouds at 4000 feet AGL

METAR

Data at: 1110 UTC 12 Jun 2021

NVVV 121100Z 13003KT 9999 FEW020 BKN270 20/20 Q1018
NVSC 120900Z 11010KT 9999 SCT020 28/22 Q1015
No Data available for NVSG
NVSS 120900Z 12004KT 9999 FEW020 BKN270 25/21 Q1016
No Data available for NVSL
No Data available for NVSP
NVVW 120600Z 00000KT 9999 FEW022 BKN045 24/20 Q1017
NVVA 120900Z 09008KT 9999 FEW012 SCT020 BKN040 23/20 Q1019 RMK RERA